Time;durP1;ratioP1;P1;durP2;ratioP2;P2;SDS_P1;SDS_P2;PMS_P1;PMS_P2;Temp;Humidity;BMP_temperature;BMP_pressure;BME280_temperature;BME280_humidity;BME280_pressure;Samples;Min_cycle;Max_cycle;Signal;HPM_P1;HPM_P2
2021/07/08 00:02:12;;;;;;;1.80;1.70;;;;;;;17.36;100.00;98459.88;5074542;28;20216;-63
2021/07/08 00:04:40;;;;;;;1.80;1.70;;;;;;;17.38;100.00;98471.28;5074728;28;20211;-62
2021/07/08 00:07:07;;;;;;;2.87;1.77;;;;;;;17.36;100.00;98467.91;5074351;28;20218;-62
2021/07/08 00:09:35;;;;;;;1.70;1.60;;;;;;;17.37;100.00;98468.75;5074546;28;20215;-62
2021/07/08 00:12:01;;;;;;;1.87;1.60;;;;;;;17.35;100.00;98466.22;5074104;28;20211;-62
2021/07/08 00:14:27;;;;;;;3.40;1.90;;;;;;;17.34;100.00;98464.53;5073964;28;20235;-62
2021/07/08 00:16:54;;;;;;;1.93;1.83;;;;;;;17.35;100.00;98457.34;5074342;28;20586;-62
2021/07/08 00:19:20;;;;;;;2.60;1.90;;;;;;;17.32;100.00;98463.81;5074046;28;20577;-62
2021/07/08 00:21:47;;;;;;;2.83;1.90;;;;;;;17.34;100.00;98466.34;5083199;28;20209;-62
2021/07/08 00:24:13;;;;;;;2.30;2.10;;;;;;;17.32;100.00;98458.47;5092869;28;20215;-62
2021/07/08 00:26:41;;;;;;;1.90;1.80;;;;;;;17.34;100.00;98458.31;5094149;28;20207;-62
2021/07/08 00:29:08;;;;;;;3.03;1.97;;;;;;;17.33;100.00;98457.50;5094104;28;20206;-62
2021/07/08 00:31:34;;;;;;;2.03;1.57;;;;;;;17.32;100.00;98461.13;5094226;28;20584;-63
2021/07/08 00:34:02;;;;;;;2.80;2.13;;;;;;;17.28;100.00;98454.41;5093877;28;20701;-63
2021/07/08 00:36:28;;;;;;;3.37;2.30;;;;;;;17.25;100.00;98443.97;5093985;28;20225;-63
2021/07/08 00:38:55;;;;;;;3.97;2.23;;;;;;;17.24;100.00;98442.28;5094207;28;20283;-62
2021/07/08 00:41:22;;;;;;;2.63;2.17;;;;;;;17.26;100.00;98439.50;5093826;28;20207;-62
2021/07/08 00:43:51;;;;;;;2.87;2.60;;;;;;;17.22;100.00;98444.28;5093747;28;20211;-62
2021/07/08 00:46:18;;;;;;;2.20;2.00;;;;;;;17.18;100.00;98456.22;5093970;28;20209;-62
2021/07/08 00:48:44;;;;;;;3.60;2.17;;;;;;;17.15;100.00;98463.66;5093913;28;20225;-62
2021/07/08 00:51:11;;;;;;;2.40;2.20;;;;;;;17.15;100.00;98464.50;5092249;28;20210;-62
2021/07/08 00:53:37;;;;;;;2.93;2.33;;;;;;;17.17;100.00;98467.88;5093812;28;20236;-62
2021/07/08 00:56:05;;;;;;;2.33;2.10;;;;;;;17.18;100.00;98469.56;5093861;28;20214;-63
2021/07/08 00:58:32;;;;;;;2.30;2.10;;;;;;;17.19;100.00;98471.25;5093026;28;20214;-63
2021/07/08 01:01:00;;;;;;;2.30;2.10;;;;;;;17.21;100.00;98468.44;5093688;28;20206;-62
2021/07/08 01:03:27;;;;;;;1.87;1.77;;;;;;;17.20;100.00;98451.56;5093762;28;20207;-62
2021/07/08 01:05:55;;;;;;;2.40;1.90;;;;;;;17.19;100.00;98449.06;5093676;28;20210;-62
2021/07/08 01:08:23;;;;;;;2.43;2.10;;;;;;;17.16;100.00;98446.66;5093715;28;20225;-63
2021/07/08 01:10:51;;;;;;;4.23;2.27;;;;;;;17.11;100.00;98431.03;5093677;28;20211;-62
2021/07/08 01:13:18;;;;;;;4.60;1.83;;;;;;;17.08;100.00;98412.59;5093641;28;20245;-62
2021/07/08 01:15:45;;;;;;;2.87;2.30;;;;;;;17.06;100.00;98395.06;5093724;28;20231;-62
2021/07/08 01:18:14;;;;;;;2.47;2.23;;;;;;;16.98;100.00;98376.22;5092027;28;20218;-62
2021/07/08 01:20:41;;;;;;;4.47;2.73;;;;;;;16.89;100.00;98377.88;5093543;28;20222;-62
2021/07/08 01:23:09;;;;;;;5.93;2.33;;;;;;;16.88;100.00;98370.03;5073234;28;20219;-62
2021/07/08 01:25:37;;;;;;;4.30;2.20;;;;;;;16.86;100.00;98366.63;5073265;28;20203;-62
2021/07/08 01:28:06;;;;;;;4.47;2.40;;;;;;;16.82;100.00;98358.06;5073097;28;20207;-62
2021/07/08 01:30:33;;;;;;;4.23;3.07;;;;;;;16.81;100.00;98364.41;5072995;28;20210;-62
2021/07/08 01:33:01;;;;;;;6.17;3.00;;;;;;;16.80;100.00;98370.72;5072750;28;20674;-62
2021/07/08 01:35:27;;;;;;;3.43;2.87;;;;;;;16.77;100.00;98368.31;5072948;28;20231;-62
2021/07/08 01:37:54;;;;;;;3.03;2.57;;;;;;;16.78;100.00;98370.03;5072522;28;20241;-62
2021/07/08 01:40:22;;;;;;;3.80;2.13;;;;;;;16.78;100.00;98370.03;5072920;28;20207;-62
2021/07/08 01:42:50;;;;;;;3.23;2.10;;;;;;;16.79;100.00;98369.03;5071324;28;20215;-62
2021/07/08 01:45:18;;;;;;;2.40;2.20;;;;;;;16.83;100.00;98380.28;5072971;28;20222;-62
2021/07/08 01:47:45;;;;;;;5.07;2.53;;;;;;;16.85;100.00;98386.31;5072807;28;20208;-62
2021/07/08 01:50:14;;;;;;;3.53;2.23;;;;;;;16.88;100.00;98380.72;5072308;28;20212;-62
2021/07/08 01:52:41;;;;;;;3.13;2.30;;;;;;;16.91;100.00;98397.28;5072534;28;20211;-62
2021/07/08 01:55:09;;;;;;;2.57;2.30;;;;;;;16.96;100.00;98400.38;5072710;28;20227;-62
2021/07/08 01:57:40;;;;;;;2.67;2.47;;;;;;;16.99;100.00;98400.09;5072479;28;20215;-62
2021/07/08 02:00:08;;;;;;;2.63;2.43;;;;;;;17.03;100.00;98401.53;5072778;28;20203;-63
2021/07/08 02:02:34;;;;;;;2.90;2.40;;;;;;;17.06;100.00;98406.56;5072722;28;20222;-62
2021/07/08 02:05:01;;;;;;;3.10;2.47;;;;;;;17.10;100.00;98397.31;5072540;28;20220;-62
2021/07/08 02:07:27;;;;;;;3.47;2.70;;;;;;;17.09;100.00;98400.97;5072063;28;20211;-62
2021/07/08 02:09:54;;;;;;;2.77;2.57;;;;;;;17.08;100.00;98395.75;5071171;28;20211;-63
2021/07/08 02:12:20;;;;;;;2.73;2.20;;;;;;;17.06;100.00;98384.38;5072790;28;20207;-63
2021/07/08 02:14:48;;;;;;;2.47;2.27;;;;;;;17.05;100.00;98388.00;5072600;28;20241;-63
2021/07/08 02:17:15;;;;;;;3.60;2.30;;;;;;;17.03;100.00;98379.31;5072459;28;20697;-62
2021/07/08 02:19:41;;;;;;;3.90;3.00;;;;;;;17.01;100.00;98381.28;5072532;28;20211;-62
2021/07/08 02:22:08;;;;;;;2.93;2.53;;;;;;;16.99;100.00;98373.41;5084715;28;20199;-62
2021/07/08 02:24:34;;;;;;;5.23;2.97;;;;;;;16.97;100.00;98378.06;5092883;28;20223;-62
2021/07/08 02:27:01;;;;;;;2.70;2.20;;;;;;;16.95;100.00;98388.00;5092741;28;20211;-62
2021/07/08 02:29:27;;;;;;;2.87;2.57;;;;;;;16.97;100.00;98375.38;5092688;28;20209;-62
2021/07/08 02:31:55;;;;;;;2.93;2.63;;;;;;;17.01;100.00;98371.44;5092448;28;20701;-62
2021/07/08 02:34:21;;;;;;;2.50;2.30;;;;;;;17.01;100.00;98376.78;5091982;28;20230;-63
2021/07/08 02:36:48;;;;;;;2.53;2.33;;;;;;;16.98;100.00;98370.88;5091679;28;20206;-63
2021/07/08 02:39:14;;;;;;;2.60;2.40;;;;;;;16.99;100.00;98373.41;5092375;28;20223;-62
2021/07/08 02:41:41;;;;;;;2.73;2.23;;;;;;;16.96;100.00;98364.84;5092411;28;20665;-62
2021/07/08 02:44:07;;;;;;;3.10;2.40;;;;;;;16.97;100.00;98378.06;5092710;28;20215;-62
2021/07/08 02:46:34;;;;;;;2.60;2.40;;;;;;;17.01;100.00;98375.94;5092329;28;20207;-62
2021/07/08 02:49:02;;;;;;;3.90;2.83;;;;;;;17.03;100.00;98373.97;5092308;28;20636;-62
2021/07/08 02:51:28;;;;;;;3.27;2.93;;;;;;;17.03;100.00;98369.47;5092641;28;20210;-62
2021/07/08 02:53:55;;;;;;;3.93;2.63;;;;;;;17.03;100.00;98361.47;5092238;28;20677;-62
2021/07/08 02:56:21;;;;;;;4.50;2.70;;;;;;;17.03;100.00;98364.16;5092515;28;20217;-63
2021/07/08 02:58:48;;;;;;;3.30;2.20;;;;;;;16.99;100.00;98370.72;5092319;28;20210;-62
2021/07/08 03:01:14;;;;;;;3.17;2.40;;;;;;;16.95;100.00;98371.97;5091246;28;20215;-62
2021/07/08 03:03:41;;;;;;;3.10;2.80;;;;;;;16.97;100.00;98386.06;5096106;28;20207;-63
2021/07/08 03:06:09;;;;;;;2.63;2.43;;;;;;;16.99;100.00;98384.09;5096073;28;20218;-63
2021/07/08 03:08:35;;;;;;;2.93;2.50;;;;;;;16.99;100.00;98388.56;5095956;28;20206;-63
2021/07/08 03:11:02;;;;;;;4.33;2.80;;;;;;;16.93;100.00;98386.47;5095993;28;20207;-63
2021/07/08 03:13:28;;;;;;;4.17;2.90;;;;;;;16.88;100.00;98386.06;5095876;28;20225;-62
2021/07/08 03:15:55;;;;;;;3.03;2.77;;;;;;;16.87;100.00;98393.22;5095963;28;20230;-63
2021/07/08 03:18:21;;;;;;;4.20;3.00;;;;;;;16.86;100.00;98402.19;5095864;28;20211;-63
2021/07/08 03:20:48;;;;;;;5.17;2.90;;;;;;;16.83;100.00;98406.97;5094517;28;20209;-62
2021/07/08 03:23:16;;;;;;;4.20;2.73;;;;;;;16.82;100.00;98402.63;5075573;28;20215;-63
2021/07/08 03:25:42;;;;;;;4.83;2.90;;;;;;;16.81;100.00;98403.59;5075583;28;20219;-63
2021/07/08 03:28:09;;;;;;;3.57;2.70;;;;;;;16.81;100.00;98395.56;5073848;28;20212;-63
2021/07/08 03:30:35;;;;;;;3.00;2.80;;;;;;;16.81;100.00;98393.75;5075339;28;20615;-62
2021/07/08 03:33:03;;;;;;;3.60;2.80;;;;;;;16.79;100.00;98401.06;5075397;28;20221;-63
2021/07/08 03:35:30;;;;;;;4.33;2.80;;;;;;;16.77;100.00;98411.03;5075287;28;21367;-63
2021/07/08 03:37:57;;;;;;;6.27;2.90;;;;;;;16.74;100.00;98419.31;5075115;28;20288;-63
2021/07/08 03:40:26;;;;;;;5.70;3.27;;;;;;;16.74;100.00;98424.66;5075040;28;20211;-63
2021/07/08 03:42:52;;;;;;;5.50;3.00;;;;;;;16.74;100.00;98422.00;5074900;28;20207;-63
2021/07/08 03:45:20;;;;;;;3.83;2.93;;;;;;;16.74;100.00;98422.00;5075006;28;20215;-63
2021/07/08 03:47:47;;;;;;;3.27;2.90;;;;;;;16.73;100.00;98430.13;5075041;28;20215;-62
2021/07/08 03:50:14;;;;;;;3.60;3.13;;;;;;;16.73;100.00;98435.47;5075007;28;20215;-62
2021/07/08 03:52:42;;;;;;;3.17;2.80;;;;;;;16.73;100.00;98432.81;5072990;28;20221;-62
2021/07/08 03:55:11;;;;;;;3.33;3.03;;;;;;;16.75;100.00;98431.69;5074575;28;20321;-62
2021/07/08 03:57:52;;;;;;;3.47;3.10;;;;;;;16.73;100.00;98420.31;5074809;28;20591;-62
2021/07/08 04:00:19;;;;;;;3.30;3.00;;;;;;;16.76;100.00;98428.03;5074670;28;20222;-62
2021/07/08 04:02:46;;;;;;;5.30;3.17;;;;;;;16.75;100.00;98413.00;5074670;28;20210;-62
2021/07/08 04:05:12;;;;;;;4.10;2.87;;;;;;;16.76;100.00;98424.53;5074288;28;20219;-62
2021/07/08 04:07:39;;;;;;;6.50;3.50;;;;;;;16.74;100.00;98416.66;5074336;28;20215;-62
2021/07/08 04:10:06;;;;;;;3.50;2.90;;;;;;;16.69;100.00;98413.53;5074553;28;20204;-62
2021/07/08 04:12:32;;;;;;;3.87;2.60;;;;;;;16.66;100.00;98411.16;5073757;28;20210;-62
2021/07/08 04:15:00;;;;;;;3.37;3.07;;;;;;;16.67;100.00;98414.66;5074370;28;20230;-62
2021/07/08 04:17:27;;;;;;;6.23;2.90;;;;;;;16.70;100.00;98412.56;5074158;28;20214;-62
2021/07/08 04:19:53;;;;;;;3.63;3.20;;;;;;;16.70;100.00;98407.22;5072691;28;20215;-62
2021/07/08 04:22:20;;;;;;;4.23;2.90;;;;;;;16.72;100.00;98413.28;5087910;28;20211;-62
2021/07/08 04:24:46;;;;;;;5.70;3.10;;;;;;;16.73;100.00;98417.63;5094256;28;20206;-62
2021/07/08 04:27:13;;;;;;;5.20;3.37;;;;;;;16.77;100.00;98416.38;5094306;28;20207;-62
2021/07/08 04:29:39;;;;;;;4.30;3.33;;;;;;;16.78;100.00;98402.06;5094130;28;20222;-62
2021/07/08 04:32:08;;;;;;;4.83;3.30;;;;;;;16.82;100.00;98392.78;5094095;28;20221;-61
2021/07/08 04:34:34;;;;;;;4.73;3.33;;;;;;;16.84;100.00;98385.50;5094367;28;20593;-62
2021/07/08 04:37:03;;;;;;;6.67;3.40;;;;;;;16.88;100.00;98381.53;5094223;28;20262;-62
2021/07/08 04:39:29;;;;;;;6.63;3.77;;;;;;;16.96;100.00;98378.19;5094236;28;20612;-62
2021/07/08 04:41:56;;;;;;;11.83;4.00;;;;;;;17.01;100.00;98378.63;5094283;28;20572;-62
2021/07/08 04:44:22;;;;;;;6.40;3.60;;;;;;;17.03;100.00;98382.84;5093660;28;20558;-62
2021/07/08 04:46:49;;;;;;;9.43;3.83;;;;;;;17.05;100.00;98383.53;5093090;28;20207;-62
2021/07/08 04:49:17;;;;;;;4.90;3.67;;;;;;;17.09;100.00;98392.97;5094041;28;20203;-62
2021/07/08 04:51:43;;;;;;;6.07;4.13;;;;;;;17.11;100.00;98392.78;5094162;28;20207;-61
2021/07/08 04:54:10;;;;;;;6.43;3.97;;;;;;;17.12;100.00;98387.31;5093688;28;20210;-61
2021/07/08 04:56:36;;;;;;;4.30;3.90;;;;;;;17.13;100.00;98391.69;5094167;28;20222;-62
2021/07/08 04:59:03;;;;;;;5.63;3.80;;;;;;;17.15;100.00;98394.22;5093658;28;20211;-61
2021/07/08 05:01:30;;;;;;;4.33;3.70;;;;;;;17.16;100.00;98386.06;5094038;28;20550;-62
2021/07/08 05:03:59;;;;;;;3.77;3.47;;;;;;;17.15;100.00;98388.88;5093523;28;20214;-62
2021/07/08 05:06:27;;;;;;;3.87;3.47;;;;;;;17.17;100.00;98398.44;5093856;28;20579;-62
2021/07/08 05:08:54;;;;;;;4.67;3.90;;;;;;;17.20;100.00;98386.63;5093698;28;20210;-62
2021/07/08 05:11:20;;;;;;;4.90;3.77;;;;;;;17.24;100.00;98380.03;5091664;28;20215;-62
2021/07/08 05:13:47;;;;;;;6.00;4.23;;;;;;;17.28;100.00;98379.59;5093736;28;20207;-62
2021/07/08 05:16:13;;;;;;;4.17;3.77;;;;;;;17.32;100.00;98389.00;5093635;28;20237;-62
2021/07/08 05:18:40;;;;;;;4.87;3.60;;;;;;;17.39;100.00;98390.19;5093629;28;20211;-62
2021/07/08 05:21:06;;;;;;;4.20;3.40;;;;;;;17.46;100.00;98388.63;5090193;28;20212;-62
2021/07/08 05:23:35;;;;;;;3.57;3.27;;;;;;;17.53;100.00;98372.84;5072575;28;20674;-62
2021/07/08 05:26:02;;;;;;;6.83;3.77;;;;;;;17.60;100.00;98371.28;5072658;28;20247;-62
2021/07/08 05:28:28;;;;;;;5.63;4.33;;;;;;;17.65;100.00;98369.00;5073182;28;20210;-62
2021/07/08 05:30:55;;;;;;;4.43;3.90;;;;;;;17.67;100.00;98375.91;5072925;28;20572;-62
2021/07/08 05:33:21;;;;;;;4.50;4.10;;;;;;;17.66;100.00;98382.25;5073285;28;20207;-62
2021/07/08 05:35:47;;;;;;;3.80;3.50;;;;;;;17.63;100.00;98382.50;5073151;28;20231;-62
2021/07/08 05:38:14;;;;;;;4.30;3.90;;;;;;;17.69;100.00;98387.28;5071613;28;20235;-62
2021/07/08 05:40:42;;;;;;;3.80;3.30;;;;;;;17.66;100.00;98394.75;5073166;28;20203;-62
2021/07/08 05:43:09;;;;;;;4.33;3.90;;;;;;;17.70;100.00;98405.03;5072858;28;20225;-62
2021/07/08 05:45:37;;;;;;;5.80;4.07;;;;;;;17.75;100.00;98421.47;5072923;28;20238;-62
2021/07/08 05:48:04;;;;;;;4.40;4.00;;;;;;;17.83;100.00;98437.66;5073248;28;20222;-62
2021/07/08 05:50:30;;;;;;;4.40;3.63;;;;;;;17.92;100.00;98446.66;5073026;28;20210;-62
2021/07/08 05:52:57;;;;;;;4.30;3.90;;;;;;;17.95;100.00;98449.88;5072839;28;20214;-62
2021/07/08 05:55:23;;;;;;;5.33;3.90;;;;;;;17.98;100.00;98468.31;5072976;28;20238;-62
2021/07/08 05:57:51;;;;;;;4.50;4.10;;;;;;;17.99;100.00;98471.84;5072966;28;20204;-62
2021/07/08 06:00:19;;;;;;;4.67;4.00;;;;;;;17.99;100.00;98483.34;5072880;28;20211;-62
2021/07/08 06:02:46;;;;;;;5.10;4.23;;;;;;;17.96;100.00;98483.66;5070605;28;20215;-62
2021/07/08 06:05:13;;;;;;;4.40;3.93;;;;;;;17.95;100.00;98487.31;5072979;28;20234;-62
2021/07/08 06:07:40;;;;;;;4.77;4.30;;;;;;;17.95;100.00;98483.78;5072794;28;20234;-62
2021/07/08 06:10:08;;;;;;;4.23;3.70;;;;;;;17.97;100.00;98500.53;5072885;28;20203;-62
2021/07/08 06:12:35;;;;;;;4.97;4.47;;;;;;;17.99;100.00;98503.94;5072780;28;20215;-62
2021/07/08 06:15:04;;;;;;;4.63;4.07;;;;;;;18.02;100.00;98514.31;5072563;28;20228;-62
2021/07/08 06:17:30;;;;;;;5.10;4.50;;;;;;;18.06;100.00;98521.94;5072468;28;20218;-62
2021/07/08 06:19:57;;;;;;;7.53;4.50;;;;;;;18.11;100.00;98511.63;5072693;28;20222;-62
2021/07/08 06:22:23;;;;;;;5.73;4.00;;;;;;;18.11;100.00;98508.97;5086739;28;20277;-62
2021/07/08 06:24:50;;;;;;;4.60;4.20;;;;;;;18.09;100.00;98508.28;5092868;28;20284;-62
2021/07/08 06:27:16;;;;;;;4.53;4.00;;;;;;;18.10;100.00;98501.94;5092779;28;20214;-61
2021/07/08 06:29:43;;;;;;;4.73;4.33;;;;;;;18.15;100.00;98494.31;5091067;28;20207;-62
2021/07/08 06:32:11;;;;;;;4.57;4.13;;;;;;;18.19;100.00;98493.06;5092845;28;20219;-63
2021/07/08 06:34:38;;;;;;;6.33;4.57;;;;;;;18.28;100.00;98494.03;5092575;28;20249;-62
2021/07/08 06:37:05;;;;;;;5.47;4.10;;;;;;;18.29;100.00;98496.53;5095832;28;20334;-63
2021/07/08 06:39:31;;;;;;;8.53;4.50;;;;;;;18.32;100.00;98501.63;5096300;28;20215;-63
2021/07/08 06:41:57;;;;;;;6.23;4.50;;;;;;;18.36;100.00;98503.00;5096519;28;20210;-62
2021/07/08 06:44:24;;;;;;;5.87;4.60;;;;;;;18.38;100.00;98494.84;5096461;28;20215;-63
2021/07/08 06:46:54;;;;;;;4.83;4.17;;;;;;;18.39;100.00;98496.53;5096323;28;20223;-62
2021/07/08 06:49:21;;;;;;;4.57;4.17;;;;;;;18.40;100.00;98499.06;5096427;28;20237;-62
2021/07/08 06:51:48;;;;;;;4.77;4.30;;;;;;;18.42;100.00;98481.03;5096014;28;20289;-62
2021/07/08 06:54:15;;;;;;;6.50;4.20;;;;;;;18.45;100.00;98471.84;5095886;28;20693;-62
2021/07/08 06:56:42;;;;;;;5.07;4.57;;;;;;;18.51;100.00;98468.59;5094845;28;20238;-63
2021/07/08 06:59:09;;;;;;;5.60;4.90;;;;;;;18.49;100.00;98471.44;5096295;28;20260;-63
2021/07/08 07:01:35;;;;;;;6.30;5.47;;;;;;;18.48;100.00;98472.41;5096250;28;20206;-63
2021/07/08 07:04:02;;;;;;;6.63;5.50;;;;;;;18.46;100.00;98476.25;5095838;28;20211;-63
2021/07/08 07:06:30;;;;;;;6.17;5.13;;;;;;;18.44;100.00;98483.56;5096045;28;20206;-64
2021/07/08 07:08:56;;;;;;;5.47;4.80;;;;;;;18.47;100.00;98494.00;5095776;28;20203;-63
2021/07/08 07:11:23;;;;;;;6.90;5.07;;;;;;;18.51;100.00;98496.22;5095907;28;20218;-63
2021/07/08 07:13:50;;;;;;;5.60;4.73;;;;;;;18.56;100.00;98493.94;5095998;28;20202;-63
2021/07/08 07:16:16;;;;;;;5.30;4.80;;;;;;;18.59;100.00;98498.19;5095606;28;20246;-63
2021/07/08 07:18:43;;;;;;;5.43;4.77;;;;;;;18.62;100.00;98505.91;5095620;28;20257;-63
2021/07/08 07:21:10;;;;;;;4.97;4.57;;;;;;;18.68;100.00;98505.31;5090043;28;20689;-62
2021/07/08 07:23:39;;;;;;;5.37;4.70;;;;;;;18.77;100.00;98499.91;5075514;28;20670;-63
2021/07/08 07:26:06;;;;;;;4.70;4.20;;;;;;;18.89;100.00;98504.09;5075586;28;20208;-63
2021/07/08 07:28:32;;;;;;;4.53;4.13;;;;;;;19.01;100.00;98489.50;5075413;28;20239;-63
2021/07/08 07:30:59;;;;;;;7.20;4.60;;;;;;;19.17;100.00;98484.34;5074998;28;20208;-63
2021/07/08 07:33:25;;;;;;;5.20;4.70;;;;;;;19.21;100.00;98487.59;5075196;28;20217;-63
2021/07/08 07:35:52;;;;;;;5.13;4.30;;;;;;;19.24;100.00;98468.50;5075231;28;20239;-64
2021/07/08 07:38:18;;;;;;;5.93;4.60;;;;;;;19.31;100.00;98467.75;5074860;28;20253;-62
2021/07/08 07:40:46;;;;;;;7.10;4.97;;;;;;;19.40;100.00;98474.03;5075302;28;20675;-63
2021/07/08 07:43:13;;;;;;;6.03;4.47;;;;;;;19.46;100.00;98478.78;5075242;28;20203;-62
2021/07/08 07:45:41;;;;;;;5.10;4.60;;;;;;;19.43;100.00;98474.56;5075110;28;20610;-63
2021/07/08 07:48:08;;;;;;;5.13;4.63;;;;;;;19.38;100.00;98479.56;5072598;28;20207;-63
2021/07/08 07:50:35;;;;;;;5.60;5.00;;;;;;;19.36;100.00;98489.59;5074874;28;20213;-62
2021/07/08 07:53:02;;;;;;;6.83;5.53;;;;;;;19.40;100.00;98490.13;5075271;28;20611;-63
2021/07/08 07:55:28;;;;;;;5.93;5.33;;;;;;;19.46;100.00;98473.44;5074630;28;20231;-62
2021/07/08 07:57:58;;;;;;;5.60;5.10;;;;;;;19.58;100.00;98473.03;5074972;28;20209;-62
2021/07/08 08:00:25;;;;;;;6.30;5.40;;;;;;;19.62;100.00;98479.78;5074833;28;20214;-62
2021/07/08 08:02:52;;;;;;;9.10;6.10;;;;;;;19.66;100.00;98475.81;5074734;28;20208;-62
2021/07/08 08:05:33;;;;;;;7.00;5.50;;;;;;;19.83;100.00;98485.69;5074377;28;20268;-62
2021/07/08 08:10:45;;;;;;;5.83;4.97;;;;;;;20.28;100.00;98475.66;5074489;28;20261;-62
2021/07/08 08:13:13;;;;;;;7.07;5.20;;;;;;;20.43;100.00;98484.78;5072859;28;20580;-62
2021/07/08 08:15:40;;;;;;;4.70;4.30;;;;;;;20.57;100.00;98478.00;5074149;28;20732;-63
2021/07/08 08:18:07;;;;;;;4.90;4.47;;;;;;;20.58;100.00;98476.97;5074511;28;20307;-62
2021/07/08 08:20:33;;;;;;;5.27;4.60;;;;;;;20.50;100.00;98483.19;5074225;28;20674;-62
2021/07/08 08:23:00;;;;;;;5.33;4.80;;;;;;;20.43;100.00;98475.91;5093439;28;20253;-63
2021/07/08 08:25:26;;;;;;;5.90;4.80;;;;;;;20.34;100.00;98475.00;5094595;28;20301;-63
2021/07/08 08:27:53;;;;;;;6.47;5.20;;;;;;;20.36;100.00;98485.59;5094576;28;20211;-63
2021/07/08 08:30:21;;;;;;;5.03;4.53;;;;;;;20.49;100.00;98494.06;5094489;28;20211;-63
2021/07/08 08:32:47;;;;;;;5.47;4.30;;;;;;;20.62;100.00;98492.66;5094266;28;20217;-63
2021/07/08 08:35:14;;;;;;;5.27;4.77;;;;;;;20.81;100.00;98492.41;5094294;28;20292;-63
2021/07/08 08:37:43;;;;;;;5.17;4.60;;;;;;;20.92;100.00;98494.81;5094010;28;20246;-63
2021/07/08 08:40:11;;;;;;;6.73;5.00;;;;;;;21.00;100.00;98494.88;5092576;28;20576;-63
2021/07/08 08:42:38;;;;;;;5.83;4.50;;;;;;;20.99;100.00;98497.72;5093955;28;20213;-62
2021/07/08 08:45:11;;;;;;;6.23;5.60;;;;;;;20.98;100.00;98494.16;5094319;28;20224;-62
2021/07/08 08:47:57;;;;;;;5.87;5.23;;;;;;;20.93;100.00;98501.91;5094147;28;20222;-63
2021/07/08 08:50:24;;;;;;;5.00;4.50;;;;;;;20.90;100.00;98494.13;5094120;28;20213;-63
2021/07/08 08:52:51;;;;;;;6.03;5.00;;;;;;;21.14;100.00;98505.00;5091966;28;20218;-63
2021/07/08 08:55:17;;;;;;;5.00;4.50;;;;;;;21.36;100.00;98504.41;5091722;28;20222;-63
2021/07/08 08:57:45;;;;;;;5.63;4.57;;;;;;;21.52;100.00;98499.03;5092551;28;20727;-63
2021/07/08 09:00:37;;;;;;;4.97;4.50;;;;;;;21.71;100.00;98493.38;5092858;28;20217;-63
2021/07/08 09:03:07;;;;;;;5.63;4.60;;;;;;;21.93;100.00;98492.72;5082409;28;20210;-63
2021/07/08 09:05:36;;;;;;;4.37;3.97;;;;;;;22.22;99.37;98493.06;5090041;28;20221;-62
2021/07/08 09:08:18;;;;;;;4.40;4.00;;;;;;;22.51;96.21;98493.38;5092948;28;20210;-63
2021/07/08 09:10:50;;;;;;;4.63;4.23;;;;;;;22.57;93.62;98498.09;5091930;28;20305;-63
2021/07/08 09:13:17;;;;;;;4.23;3.83;;;;;;;22.72;94.66;98507.13;5092738;28;20214;-62
2021/07/08 09:15:44;;;;;;;4.43;4.03;;;;;;;22.86;94.77;98513.66;5092740;28;20210;-62
2021/07/08 09:18:14;;;;;;;4.30;3.90;;;;;;;22.93;93.64;98526.25;5091833;28;20207;-62
2021/07/08 09:20:41;;;;;;;6.27;4.10;;;;;;;22.85;93.25;98526.28;5090061;28;20215;-63
2021/07/08 09:23:11;;;;;;;4.70;4.27;;;;;;;22.77;92.28;98525.47;5093075;28;20210;-63
2021/07/08 09:25:37;;;;;;;5.27;4.33;;;;;;;22.80;93.22;98542.13;5093234;28;20221;-62
2021/07/08 09:28:20;;;;;;;4.40;4.00;;;;;;;22.89;93.01;98542.94;5093285;28;20226;-63
2021/07/08 09:30:57;;;;;;;4.83;4.43;;;;;;;22.92;90.85;98546.13;5092220;28;20268;-63
2021/07/08 09:33:35;;;;;;;4.33;3.93;;;;;;;22.90;92.00;98541.94;5093022;28;20297;-63
2021/07/08 09:36:19;;;;;;;4.50;4.10;;;;;;;22.85;90.76;98541.63;5093243;28;20318;-63
2021/07/08 09:38:50;;;;;;;4.30;3.97;;;;;;;22.87;91.40;98548.50;5093245;28;20257;-63
2021/07/08 09:41:19;;;;;;;4.10;3.80;;;;;;;22.84;91.80;98537.22;5093153;28;20215;-63
2021/07/08 09:43:46;;;;;;;4.07;3.67;;;;;;;22.81;91.05;98527.63;5092977;28;20681;-63
2021/07/08 09:46:14;;;;;;;4.43;4.03;;;;;;;22.79;91.04;98521.59;5093197;28;20559;-63
2021/07/08 09:49:03;;;;;;;3.90;3.60;;;;;;;22.77;90.76;98520.94;5092834;28;20677;-63
2021/07/08 09:51:32;;;;;;;5.07;3.90;;;;;;;22.60;89.99;98513.91;5092996;28;20302;-63
2021/07/08 09:54:05;;;;;;;3.60;3.30;;;;;;;22.59;91.28;98506.81;5092872;28;20669;-63
2021/07/08 09:56:47;;;;;;;3.67;3.37;;;;;;;22.62;92.89;98506.47;5092747;28;20609;-63
2021/07/08 09:59:15;;;;;;;4.40;4.00;;;;;;;22.61;90.53;98510.19;5092709;28;20218;-63
2021/07/08 10:01:43;;;;;;;4.30;3.67;;;;;;;22.67;90.40;98514.06;5092878;28;20685;-63
2021/07/08 10:04:12;;;;;;;4.57;3.57;;;;;;;22.76;90.00;98513.88;5093081;28;20206;-64
2021/07/08 10:06:39;;;;;;;4.60;3.37;;;;;;;22.80;88.65;98514.34;5092742;28;20210;-64
2021/07/08 10:09:06;;;;;;;4.07;3.67;;;;;;;22.82;87.85;98512.31;5093050;28;20215;-64
2021/07/08 10:11:33;;;;;;;4.17;3.67;;;;;;;22.85;87.82;98518.19;5095822;28;20225;-64
2021/07/08 10:14:03;;;;;;;4.20;3.80;;;;;;;22.85;87.85;98507.41;5097141;28;20207;-64
2021/07/08 10:16:32;;;;;;;4.20;3.80;;;;;;;22.92;87.89;98508.41;5097097;28;20244;-64
2021/07/08 10:19:02;;;;;;;3.27;3.07;;;;;;;23.04;88.33;98507.00;5097168;28;20215;-63
2021/07/08 10:21:31;;;;;;;3.73;3.43;;;;;;;23.22;88.13;98494.16;5090695;28;20203;-63
2021/07/08 10:23:59;;;;;;;4.67;4.20;;;;;;;23.30;81.50;98493.28;5074840;28;20219;-63
2021/07/08 10:26:26;;;;;;;5.10;4.23;;;;;;;23.35;79.49;98491.72;5076398;28;20212;-63
2021/07/08 10:28:54;;;;;;;4.17;3.77;;;;;;;23.36;80.04;98495.28;5076386;28;20685;-63
2021/07/08 10:31:22;;;;;;;4.00;3.60;;;;;;;23.55;80.16;98484.88;5076493;28;20215;-63
2021/07/08 10:34:10;;;;;;;4.00;3.60;;;;;;;23.70;79.77;98482.22;5076377;28;20269;-63
2021/07/08 10:36:38;;;;;;;3.80;3.40;;;;;;;23.78;79.36;98483.00;5075858;28;20702;-63
2021/07/08 10:39:07;;;;;;;4.47;4.03;;;;;;;23.92;78.34;98476.88;5076262;28;20204;-63
2021/07/08 10:41:53;;;;;;;4.67;3.83;;;;;;;23.94;78.65;98468.56;5076137;28;20303;-63
2021/07/08 10:44:52;;;;;;;5.10;3.57;;;;;;;24.14;78.18;98459.78;5076262;28;20635;-63
2021/07/08 10:47:40;;;;;;;4.30;3.90;;;;;;;24.33;77.56;98458.44;5014161;28;20216;-63
2021/07/08 10:50:37;;;;;;;5.07;4.50;;;;;;;24.28;73.80;98471.66;5012447;28;20221;-63
2021/07/08 10:53:18;;;;;;;3.97;3.50;;;;;;;24.27;74.88;98486.19;5058808;28;20294;-63
2021/07/08 10:55:47;;;;;;;5.93;3.50;;;;;;;24.28;74.79;98491.41;5075741;28;20226;-63
2021/07/08 10:58:37;;;;;;;3.73;3.33;;;;;;;24.22;74.66;98500.25;5075473;28;20709;-63
2021/07/08 11:01:05;;;;;;;3.30;3.00;;;;;;;24.10;72.53;98509.81;5076039;28;20601;-62
2021/07/08 11:03:43;;;;;;;3.13;2.83;;;;;;;24.05;75.58;98514.03;5075978;28;20299;-63
2021/07/08 11:06:18;;;;;;;3.10;2.90;;;;;;;24.00;77.05;98521.84;5075842;28;20214;-62
2021/07/08 11:09:18;;;;;;;3.17;2.87;;;;;;;23.79;79.12;98525.19;5075940;28;20217;-63
2021/07/08 11:12:27;;;;;;;3.10;2.77;;;;;;;23.61;80.73;98527.34;5075420;28;20215;-63
2021/07/08 11:14:53;;;;;;;2.93;2.70;;;;;;;23.53;82.07;98521.97;5074115;28;20216;-63
2021/07/08 11:17:22;;;;;;;3.67;2.90;;;;;;;23.46;81.01;98520.19;5075378;28;20227;-63
2021/07/08 11:19:54;;;;;;;3.53;2.93;;;;;;;23.39;79.83;98517.34;5075304;28;20600;-63
2021/07/08 11:22:39;;;;;;;3.20;2.90;;;;;;;23.40;78.71;98508.22;5086752;28;20284;-63
2021/07/08 11:25:09;;;;;;;2.80;2.60;;;;;;;23.35;77.76;98499.81;5094675;28;20218;-63
2021/07/08 11:27:39;;;;;;;3.63;3.27;;;;;;;23.27;75.98;98507.09;5095462;28;20222;-63
2021/07/08 11:30:39;;;;;;;3.77;2.93;;;;;;;23.04;77.52;98507.00;5095671;28;20207;-63
2021/07/08 11:33:06;;;;;;;4.50;3.73;;;;;;;22.75;84.21;98500.56;5095737;28;20214;-63
2021/07/08 11:35:36;;;;;;;3.30;3.00;;;;;;;22.58;83.03;98505.16;5095198;28;20253;-63
2021/07/08 11:38:06;;;;;;;3.67;3.37;;;;;;;22.50;82.83;98505.16;5095034;28;20321;-63